sensor_id;sensor_type;location;lat;lon;timestamp;P1;durP1;ratioP1;P2;durP2;ratioP2
51852;SDS011;37894;53.172;6.598;2023-05-17T00:01:45;14.20;;;3.10;;
51852;SDS011;37894;53.172;6.598;2023-05-17T00:04:11;19.05;;;3.85;;
51852;SDS011;37894;53.172;6.598;2023-05-17T00:06:38;12.60;;;2.92;;
51852;SDS011;37894;53.172;6.598;2023-05-17T00:09:05;15.07;;;3.08;;
51852;SDS011;37894;53.172;6.598;2023-05-17T00:11:31;18.67;;;3.65;;
51852;SDS011;37894;53.172;6.598;2023-05-17T00:13:57;16.10;;;3.50;;
51852;SDS011;37894;53.172;6.598;2023-05-17T00:16:23;20.80;;;3.42;;
51852;SDS011;37894;53.172;6.598;2023-05-17T00:18:49;22.65;;;3.78;;
51852;SDS011;37894;53.172;6.598;2023-05-17T00:21:15;19.02;;;3.13;;
51852;SDS011;37894;53.172;6.598;2023-05-17T00:23:41;19.15;;;3.25;;
51852;SDS011;37894;53.172;6.598;2023-05-17T00:26:07;14.15;;;3.47;;
51852;SDS011;37894;53.172;6.598;2023-05-17T00:28:33;19.10;;;4.43;;
51852;SDS011;37894;53.172;6.598;2023-05-17T00:30:59;17.38;;;3.58;;
51852;SDS011;37894;53.172;6.598;2023-05-17T00:33:25;22.77;;;3.40;;
51852;SDS011;37894;53.172;6.598;2023-05-17T00:35:51;17.25;;;3.53;;
51852;SDS011;37894;53.172;6.598;2023-05-17T00:38:17;16.77;;;3.13;;
51852;SDS011;37894;53.172;6.598;2023-05-17T00:40:42;13.48;;;2.90;;
51852;SDS011;37894;53.172;6.598;2023-05-17T00:43:09;21.42;;;3.03;;
51852;SDS011;37894;53.172;6.598;2023-05-17T00:45:35;19.30;;;3.50;;
51852;SDS011;37894;53.172;6.598;2023-05-17T00:48:01;17.08;;;3.95;;
51852;SDS011;37894;53.172;6.598;2023-05-17T00:50:27;19.15;;;4.65;;
51852;SDS011;37894;53.172;6.598;2023-05-17T00:52:54;17.48;;;3.55;;
51852;SDS011;37894;53.172;6.598;2023-05-17T00:55:20;16.63;;;3.70;;
51852;SDS011;37894;53.172;6.598;2023-05-17T00:57:46;18.50;;;3.35;;
51852;SDS011;37894;53.172;6.598;2023-05-17T01:00:12;16.95;;;3.67;;
51852;SDS011;37894;53.172;6.598;2023-05-17T01:02:39;17.20;;;3.30;;
51852;SDS011;37894;53.172;6.598;2023-05-17T01:05:04;16.55;;;3.75;;
51852;SDS011;37894;53.172;6.598;2023-05-17T01:07:31;17.50;;;3.38;;
51852;SDS011;37894;53.172;6.598;2023-05-17T01:09:57;20.45;;;4.13;;
51852;SDS011;37894;53.172;6.598;2023-05-17T01:15:27;28.60;;;3.72;;
51852;SDS011;37894;53.172;6.598;2023-05-17T01:20:32;21.65;;;4.32;;
51852;SDS011;37894;53.172;6.598;2023-05-17T01:28:18;17.73;;;2.65;;
51852;SDS011;37894;53.172;6.598;2023-05-17T01:30:47;13.00;;;3.22;;
51852;SDS011;37894;53.172;6.598;2023-05-17T01:33:16;24.15;;;4.35;;
51852;SDS011;37894;53.172;6.598;2023-05-17T01:35:43;22.63;;;4.75;;
51852;SDS011;37894;53.172;6.598;2023-05-17T01:38:09;21.70;;;4.07;;
51852;SDS011;37894;53.172;6.598;2023-05-17T01:40:35;19.17;;;3.40;;
51852;SDS011;37894;53.172;6.598;2023-05-17T01:48:44;15.98;;;3.45;;
51852;SDS011;37894;53.172;6.598;2023-05-17T01:51:20;15.18;;;2.90;;
51852;SDS011;37894;53.172;6.598;2023-05-17T01:53:56;15.27;;;3.20;;
51852;SDS011;37894;53.172;6.598;2023-05-17T01:56:26;19.58;;;2.78;;
51852;SDS011;37894;53.172;6.598;2023-05-17T01:58:55;11.88;;;2.45;;
51852;SDS011;37894;53.172;6.598;2023-05-17T02:01:23;15.85;;;3.05;;
51852;SDS011;37894;53.172;6.598;2023-05-17T02:03:52;14.85;;;2.58;;
51852;SDS011;37894;53.172;6.598;2023-05-17T02:06:18;12.30;;;2.42;;
51852;SDS011;37894;53.172;6.598;2023-05-17T02:08:44;11.90;;;2.42;;
51852;SDS011;37894;53.172;6.598;2023-05-17T02:11:10;19.77;;;2.90;;
51852;SDS011;37894;53.172;6.598;2023-05-17T02:13:36;15.93;;;2.85;;
51852;SDS011;37894;53.172;6.598;2023-05-17T02:16:02;14.40;;;2.40;;
51852;SDS011;37894;53.172;6.598;2023-05-17T02:18:29;12.50;;;2.65;;
51852;SDS011;37894;53.172;6.598;2023-05-17T02:20:56;10.05;;;2.55;;
51852;SDS011;37894;53.172;6.598;2023-05-17T02:23:22;10.60;;;2.35;;
51852;SDS011;37894;53.172;6.598;2023-05-17T02:25:49;16.90;;;3.22;;
51852;SDS011;37894;53.172;6.598;2023-05-17T02:28:15;11.50;;;2.75;;
51852;SDS011;37894;53.172;6.598;2023-05-17T02:30:41;12.52;;;2.45;;
51852;SDS011;37894;53.172;6.598;2023-05-17T02:33:08;17.27;;;2.22;;
51852;SDS011;37894;53.172;6.598;2023-05-17T02:35:34;11.20;;;2.15;;
51852;SDS011;37894;53.172;6.598;2023-05-17T02:38:00;16.30;;;3.10;;
51852;SDS011;37894;53.172;6.598;2023-05-17T02:40:26;12.38;;;2.42;;
51852;SDS011;37894;53.172;6.598;2023-05-17T02:42:51;12.40;;;2.35;;
51852;SDS011;37894;53.172;6.598;2023-05-17T02:45:17;11.00;;;2.63;;
51852;SDS011;37894;53.172;6.598;2023-05-17T02:47:43;12.00;;;2.72;;
51852;SDS011;37894;53.172;6.598;2023-05-17T02:50:09;13.27;;;2.47;;
51852;SDS011;37894;53.172;6.598;2023-05-17T02:52:35;13.75;;;2.17;;
51852;SDS011;37894;53.172;6.598;2023-05-17T02:55:01;12.75;;;2.17;;
51852;SDS011;37894;53.172;6.598;2023-05-17T02:57:27;11.77;;;2.78;;
51852;SDS011;37894;53.172;6.598;2023-05-17T02:59:53;16.02;;;3.13;;
51852;SDS011;37894;53.172;6.598;2023-05-17T03:02:19;14.70;;;3.03;;
51852;SDS011;37894;53.172;6.598;2023-05-17T03:04:45;14.25;;;3.38;;
51852;SDS011;37894;53.172;6.598;2023-05-17T03:07:11;12.57;;;2.38;;
51852;SDS011;37894;53.172;6.598;2023-05-17T03:09:37;11.05;;;2.42;;
51852;SDS011;37894;53.172;6.598;2023-05-17T03:12:03;16.25;;;2.25;;
51852;SDS011;37894;53.172;6.598;2023-05-17T03:14:30;9.82;;;2.72;;
51852;SDS011;37894;53.172;6.598;2023-05-17T03:16:55;15.50;;;2.58;;
51852;SDS011;37894;53.172;6.598;2023-05-17T03:19:21;17.45;;;2.92;;
51852;SDS011;37894;53.172;6.598;2023-05-17T03:21:48;14.05;;;2.42;;
51852;SDS011;37894;53.172;6.598;2023-05-17T03:24:14;14.50;;;3.15;;
51852;SDS011;37894;53.172;6.598;2023-05-17T03:26:39;12.25;;;2.72;;
51852;SDS011;37894;53.172;6.598;2023-05-17T03:29:05;11.88;;;2.78;;
51852;SDS011;37894;53.172;6.598;2023-05-17T03:31:31;17.95;;;2.85;;
51852;SDS011;37894;53.172;6.598;2023-05-17T03:33:57;12.93;;;2.30;;
51852;SDS011;37894;53.172;6.598;2023-05-17T03:36:23;11.55;;;2.58;;
51852;SDS011;37894;53.172;6.598;2023-05-17T03:38:49;13.77;;;2.30;;
51852;SDS011;37894;53.172;6.598;2023-05-17T03:41:14;10.75;;;2.35;;
51852;SDS011;37894;53.172;6.598;2023-05-17T03:43:41;11.43;;;2.10;;
51852;SDS011;37894;53.172;6.598;2023-05-17T03:46:07;12.77;;;2.28;;
51852;SDS011;37894;53.172;6.598;2023-05-17T03:48:33;10.13;;;2.40;;
51852;SDS011;37894;53.172;6.598;2023-05-17T03:50:59;5.45;;;1.70;;
51852;SDS011;37894;53.172;6.598;2023-05-17T03:53:25;16.42;;;2.42;;
51852;SDS011;37894;53.172;6.598;2023-05-17T03:55:51;15.15;;;2.65;;
51852;SDS011;37894;53.172;6.598;2023-05-17T03:58:17;11.73;;;2.28;;
51852;SDS011;37894;53.172;6.598;2023-05-17T04:00:43;9.13;;;1.90;;
51852;SDS011;37894;53.172;6.598;2023-05-17T04:03:09;12.85;;;2.42;;
51852;SDS011;37894;53.172;6.598;2023-05-17T04:05:37;9.23;;;2.28;;
51852;SDS011;37894;53.172;6.598;2023-05-17T04:08:06;10.30;;;1.80;;
51852;SDS011;37894;53.172;6.598;2023-05-17T04:10:32;8.93;;;2.65;;
51852;SDS011;37894;53.172;6.598;2023-05-17T04:12:58;10.35;;;2.38;;
51852;SDS011;37894;53.172;6.598;2023-05-17T04:15:24;9.15;;;1.90;;
51852;SDS011;37894;53.172;6.598;2023-05-17T04:17:50;13.05;;;2.38;;
51852;SDS011;37894;53.172;6.598;2023-05-17T04:20:16;14.77;;;1.60;;
51852;SDS011;37894;53.172;6.598;2023-05-17T04:22:42;8.20;;;1.80;;
51852;SDS011;37894;53.172;6.598;2023-05-17T04:25:08;10.25;;;2.50;;
51852;SDS011;37894;53.172;6.598;2023-05-17T04:27:34;8.27;;;1.92;;
51852;SDS011;37894;53.172;6.598;2023-05-17T04:30:00;8.93;;;2.22;;
51852;SDS011;37894;53.172;6.598;2023-05-17T04:32:26;5.82;;;1.60;;
51852;SDS011;37894;53.172;6.598;2023-05-17T04:34:52;7.30;;;1.52;;
51852;SDS011;37894;53.172;6.598;2023-05-17T04:37:18;8.73;;;2.17;;
51852;SDS011;37894;53.172;6.598;2023-05-17T04:39:44;8.02;;;1.70;;
51852;SDS011;37894;53.172;6.598;2023-05-17T04:42:10;7.93;;;1.50;;
51852;SDS011;37894;53.172;6.598;2023-05-17T04:44:35;11.23;;;1.60;;
51852;SDS011;37894;53.172;6.598;2023-05-17T04:47:02;8.55;;;1.85;;
51852;SDS011;37894;53.172;6.598;2023-05-17T04:49:28;7.57;;;1.60;;
51852;SDS011;37894;53.172;6.598;2023-05-17T04:51:54;9.48;;;1.75;;
51852;SDS011;37894;53.172;6.598;2023-05-17T04:54:19;13.23;;;2.17;;
51852;SDS011;37894;53.172;6.598;2023-05-17T04:56:45;10.25;;;2.53;;
51852;SDS011;37894;53.172;6.598;2023-05-17T04:59:11;8.73;;;1.60;;
51852;SDS011;37894;53.172;6.598;2023-05-17T05:01:37;14.65;;;2.08;;
51852;SDS011;37894;53.172;6.598;2023-05-17T05:04:03;9.95;;;3.28;;
51852;SDS011;37894;53.172;6.598;2023-05-17T05:06:31;8.73;;;1.80;;
51852;SDS011;37894;53.172;6.598;2023-05-17T05:09:01;8.60;;;2.75;;
51852;SDS011;37894;53.172;6.598;2023-05-17T05:11:28;13.75;;;2.00;;
51852;SDS011;37894;53.172;6.598;2023-05-17T05:13:55;16.55;;;2.00;;
51852;SDS011;37894;53.172;6.598;2023-05-17T05:16:21;10.32;;;2.25;;
51852;SDS011;37894;53.172;6.598;2023-05-17T05:18:48;8.35;;;1.92;;
51852;SDS011;37894;53.172;6.598;2023-05-17T05:21:14;8.55;;;1.90;;
51852;SDS011;37894;53.172;6.598;2023-05-17T05:23:40;8.93;;;1.48;;
51852;SDS011;37894;53.172;6.598;2023-05-17T05:26:06;8.82;;;1.85;;
51852;SDS011;37894;53.172;6.598;2023-05-17T05:28:31;7.60;;;1.90;;
51852;SDS011;37894;53.172;6.598;2023-05-17T05:30:57;7.30;;;1.48;;
51852;SDS011;37894;53.172;6.598;2023-05-17T05:33:26;7.85;;;2.15;;
51852;SDS011;37894;53.172;6.598;2023-05-17T05:35:52;11.18;;;1.52;;
51852;SDS011;37894;53.172;6.598;2023-05-17T05:38:17;8.45;;;1.65;;
51852;SDS011;37894;53.172;6.598;2023-05-17T05:40:46;12.63;;;2.17;;
51852;SDS011;37894;53.172;6.598;2023-05-17T05:43:12;12.80;;;2.58;;
51852;SDS011;37894;53.172;6.598;2023-05-17T05:45:38;8.43;;;1.70;;
51852;SDS011;37894;53.172;6.598;2023-05-17T05:48:09;10.93;;;2.00;;
51852;SDS011;37894;53.172;6.598;2023-05-17T05:50:39;11.43;;;2.25;;
51852;SDS011;37894;53.172;6.598;2023-05-17T05:53:07;13.90;;;2.03;;
51852;SDS011;37894;53.172;6.598;2023-05-17T05:55:33;10.65;;;1.98;;
51852;SDS011;37894;53.172;6.598;2023-05-17T05:57:59;12.15;;;2.50;;
51852;SDS011;37894;53.172;6.598;2023-05-17T06:00:25;12.85;;;2.97;;
51852;SDS011;37894;53.172;6.598;2023-05-17T06:02:52;15.65;;;2.50;;
51852;SDS011;37894;53.172;6.598;2023-05-17T06:05:18;12.57;;;2.28;;
51852;SDS011;37894;53.172;6.598;2023-05-17T06:07:44;17.08;;;2.20;;
51852;SDS011;37894;53.172;6.598;2023-05-17T06:10:10;12.32;;;1.90;;
51852;SDS011;37894;53.172;6.598;2023-05-17T06:12:36;10.65;;;2.03;;
51852;SDS011;37894;53.172;6.598;2023-05-17T06:15:02;11.68;;;2.65;;
51852;SDS011;37894;53.172;6.598;2023-05-17T06:17:28;9.07;;;2.20;;
51852;SDS011;37894;53.172;6.598;2023-05-17T06:19:53;10.90;;;1.85;;
51852;SDS011;37894;53.172;6.598;2023-05-17T06:22:19;14.35;;;2.40;;
51852;SDS011;37894;53.172;6.598;2023-05-17T06:24:45;14.38;;;3.00;;
51852;SDS011;37894;53.172;6.598;2023-05-17T06:27:11;13.55;;;2.55;;
51852;SDS011;37894;53.172;6.598;2023-05-17T06:29:36;14.18;;;3.22;;
51852;SDS011;37894;53.172;6.598;2023-05-17T06:32:02;12.50;;;2.20;;
51852;SDS011;37894;53.172;6.598;2023-05-17T06:34:28;15.02;;;2.20;;
51852;SDS011;37894;53.172;6.598;2023-05-17T06:36:54;14.57;;;2.25;;
51852;SDS011;37894;53.172;6.598;2023-05-17T06:39:20;16.55;;;2.80;;
51852;SDS011;37894;53.172;6.598;2023-05-17T06:41:46;12.55;;;2.38;;
51852;SDS011;37894;53.172;6.598;2023-05-17T06:44:12;15.60;;;2.97;;
51852;SDS011;37894;53.172;6.598;2023-05-17T06:46:37;15.52;;;2.60;;
51852;SDS011;37894;53.172;6.598;2023-05-17T06:49:03;14.75;;;2.78;;
51852;SDS011;37894;53.172;6.598;2023-05-17T06:51:29;13.98;;;2.88;;
51852;SDS011;37894;53.172;6.598;2023-05-17T06:53:55;13.43;;;2.78;;
51852;SDS011;37894;53.172;6.598;2023-05-17T06:56:21;14.93;;;2.95;;
51852;SDS011;37894;53.172;6.598;2023-05-17T06:58:46;13.95;;;3.60;;
51852;SDS011;37894;53.172;6.598;2023-05-17T07:01:12;10.45;;;2.22;;
51852;SDS011;37894;53.172;6.598;2023-05-17T07:03:38;8.80;;;2.25;;
51852;SDS011;37894;53.172;6.598;2023-05-17T07:06:03;15.07;;;2.75;;
51852;SDS011;37894;53.172;6.598;2023-05-17T07:08:29;14.35;;;2.65;;
51852;SDS011;37894;53.172;6.598;2023-05-17T07:10:55;11.85;;;2.70;;
51852;SDS011;37894;53.172;6.598;2023-05-17T07:13:21;14.90;;;2.50;;
51852;SDS011;37894;53.172;6.598;2023-05-17T07:15:47;12.63;;;2.20;;
51852;SDS011;37894;53.172;6.598;2023-05-17T07:18:12;13.80;;;2.63;;
51852;SDS011;37894;53.172;6.598;2023-05-17T07:20:38;13.73;;;2.10;;
51852;SDS011;37894;53.172;6.598;2023-05-17T07:23:04;11.52;;;2.33;;
51852;SDS011;37894;53.172;6.598;2023-05-17T07:25:30;13.95;;;3.20;;
51852;SDS011;37894;53.172;6.598;2023-05-17T07:27:56;10.25;;;2.10;;
51852;SDS011;37894;53.172;6.598;2023-05-17T07:30:22;12.57;;;1.90;;
51852;SDS011;37894;53.172;6.598;2023-05-17T07:32:47;14.18;;;2.33;;
51852;SDS011;37894;53.172;6.598;2023-05-17T07:35:13;14.43;;;2.55;;
51852;SDS011;37894;53.172;6.598;2023-05-17T07:37:39;8.85;;;2.05;;
51852;SDS011;37894;53.172;6.598;2023-05-17T07:40:05;8.90;;;3.47;;
51852;SDS011;37894;53.172;6.598;2023-05-17T07:42:31;17.05;;;2.65;;
51852;SDS011;37894;53.172;6.598;2023-05-17T07:44:57;14.88;;;1.95;;
51852;SDS011;37894;53.172;6.598;2023-05-17T07:47:23;15.23;;;3.17;;
51852;SDS011;37894;53.172;6.598;2023-05-17T07:49:48;8.68;;;1.85;;
51852;SDS011;37894;53.172;6.598;2023-05-17T07:52:14;14.70;;;2.80;;
51852;SDS011;37894;53.172;6.598;2023-05-17T07:54:40;9.88;;;2.22;;
51852;SDS011;37894;53.172;6.598;2023-05-17T07:57:06;12.18;;;3.03;;
51852;SDS011;37894;53.172;6.598;2023-05-17T07:59:31;10.50;;;1.80;;
51852;SDS011;37894;53.172;6.598;2023-05-17T08:01:57;7.22;;;2.00;;
51852;SDS011;37894;53.172;6.598;2023-05-17T08:04:23;10.07;;;1.80;;
51852;SDS011;37894;53.172;6.598;2023-05-17T08:06:48;13.75;;;2.30;;
51852;SDS011;37894;53.172;6.598;2023-05-17T08:09:15;17.42;;;2.75;;
51852;SDS011;37894;53.172;6.598;2023-05-17T08:11:41;11.98;;;2.40;;
51852;SDS011;37894;53.172;6.598;2023-05-17T08:14:16;12.90;;;2.38;;
51852;SDS011;37894;53.172;6.598;2023-05-17T08:16:42;10.32;;;1.98;;
51852;SDS011;37894;53.172;6.598;2023-05-17T08:19:10;13.10;;;2.42;;
51852;SDS011;37894;53.172;6.598;2023-05-17T08:21:40;15.90;;;2.60;;
51852;SDS011;37894;53.172;6.598;2023-05-17T08:24:06;13.10;;;2.70;;
51852;SDS011;37894;53.172;6.598;2023-05-17T08:26:32;14.98;;;1.95;;
51852;SDS011;37894;53.172;6.598;2023-05-17T08:28:59;14.40;;;2.17;;
51852;SDS011;37894;53.172;6.598;2023-05-17T08:31:26;11.95;;;2.30;;
51852;SDS011;37894;53.172;6.598;2023-05-17T08:33:52;8.88;;;2.05;;
51852;SDS011;37894;53.172;6.598;2023-05-17T08:36:18;14.07;;;2.70;;
51852;SDS011;37894;53.172;6.598;2023-05-17T08:38:44;9.82;;;1.90;;
51852;SDS011;37894;53.172;6.598;2023-05-17T08:41:10;12.10;;;2.05;;
51852;SDS011;37894;53.172;6.598;2023-05-17T08:43:37;12.20;;;2.10;;
51852;SDS011;37894;53.172;6.598;2023-05-17T08:46:03;9.30;;;1.75;;
51852;SDS011;37894;53.172;6.598;2023-05-17T08:48:29;12.38;;;1.75;;
51852;SDS011;37894;53.172;6.598;2023-05-17T08:50:56;9.00;;;1.70;;
51852;SDS011;37894;53.172;6.598;2023-05-17T08:53:22;11.68;;;1.55;;
51852;SDS011;37894;53.172;6.598;2023-05-17T08:55:49;8.02;;;1.92;;
51852;SDS011;37894;53.172;6.598;2023-05-17T08:58:18;7.00;;;1.77;;
51852;SDS011;37894;53.172;6.598;2023-05-17T09:00:45;8.45;;;1.95;;
51852;SDS011;37894;53.172;6.598;2023-05-17T09:03:14;6.65;;;1.52;;
51852;SDS011;37894;53.172;6.598;2023-05-17T09:05:43;9.15;;;1.90;;
51852;SDS011;37894;53.172;6.598;2023-05-17T09:08:09;8.25;;;1.65;;
51852;SDS011;37894;53.172;6.598;2023-05-17T09:10:41;13.88;;;2.05;;
51852;SDS011;37894;53.172;6.598;2023-05-17T09:13:10;10.90;;;1.85;;
51852;SDS011;37894;53.172;6.598;2023-05-17T09:15:37;8.48;;;1.60;;
51852;SDS011;37894;53.172;6.598;2023-05-17T09:18:03;8.40;;;1.60;;
51852;SDS011;37894;53.172;6.598;2023-05-17T09:20:28;14.40;;;2.03;;
51852;SDS011;37894;53.172;6.598;2023-05-17T09:25:27;8.50;;;2.13;;
51852;SDS011;37894;53.172;6.598;2023-05-17T09:27:54;10.10;;;1.98;;
51852;SDS011;37894;53.172;6.598;2023-05-17T09:30:30;7.75;;;1.60;;
51852;SDS011;37894;53.172;6.598;2023-05-17T09:32:57;6.25;;;1.55;;
51852;SDS011;37894;53.172;6.598;2023-05-17T09:35:29;10.93;;;2.13;;
51852;SDS011;37894;53.172;6.598;2023-05-17T09:38:07;7.18;;;1.67;;
51852;SDS011;37894;53.172;6.598;2023-05-17T09:40:44;10.48;;;2.20;;
51852;SDS011;37894;53.172;6.598;2023-05-17T09:43:12;8.48;;;1.67;;
51852;SDS011;37894;53.172;6.598;2023-05-17T09:45:40;7.40;;;1.90;;
51852;SDS011;37894;53.172;6.598;2023-05-17T09:48:13;7.95;;;1.70;;
51852;SDS011;37894;53.172;6.598;2023-05-17T09:50:49;9.75;;;1.73;;
51852;SDS011;37894;53.172;6.598;2023-05-17T09:53:25;9.27;;;1.85;;
51852;SDS011;37894;53.172;6.598;2023-05-17T09:55:52;6.07;;;1.67;;
51852;SDS011;37894;53.172;6.598;2023-05-17T09:58:18;11.82;;;1.83;;
51852;SDS011;37894;53.172;6.598;2023-05-17T10:00:46;8.95;;;2.15;;
51852;SDS011;37894;53.172;6.598;2023-05-17T10:03:17;24.27;;;2.50;;
51852;SDS011;37894;53.172;6.598;2023-05-17T10:05:43;7.15;;;1.70;;
51852;SDS011;37894;53.172;6.598;2023-05-17T10:08:11;6.93;;;1.98;;
51852;SDS011;37894;53.172;6.598;2023-05-17T10:10:39;9.45;;;1.52;;
51852;SDS011;37894;53.172;6.598;2023-05-17T10:13:07;6.80;;;1.60;;
51852;SDS011;37894;53.172;6.598;2023-05-17T10:15:35;6.28;;;1.38;;
51852;SDS011;37894;53.172;6.598;2023-05-17T10:18:03;10.35;;;1.77;;
51852;SDS011;37894;53.172;6.598;2023-05-17T10:20:31;6.55;;;1.70;;
51852;SDS011;37894;53.172;6.598;2023-05-17T10:22:58;7.80;;;1.52;;
51852;SDS011;37894;53.172;6.598;2023-05-17T10:25:27;8.30;;;1.95;;
51852;SDS011;37894;53.172;6.598;2023-05-17T10:27:53;4.28;;;1.30;;
51852;SDS011;37894;53.172;6.598;2023-05-17T10:30:19;6.30;;;1.75;;
51852;SDS011;37894;53.172;6.598;2023-05-17T10:32:46;6.90;;;1.90;;
51852;SDS011;37894;53.172;6.598;2023-05-17T10:35:14;8.75;;;1.67;;
51852;SDS011;37894;53.172;6.598;2023-05-17T10:37:40;5.22;;;1.70;;
51852;SDS011;37894;53.172;6.598;2023-05-17T10:40:06;7.15;;;1.55;;
51852;SDS011;37894;53.172;6.598;2023-05-17T10:42:49;8.20;;;1.70;;
51852;SDS011;37894;53.172;6.598;2023-05-17T10:45:20;10.25;;;1.60;;
51852;SDS011;37894;53.172;6.598;2023-05-17T10:47:51;10.63;;;1.77;;
51852;SDS011;37894;53.172;6.598;2023-05-17T10:50:21;5.07;;;1.50;;
51852;SDS011;37894;53.172;6.598;2023-05-17T10:52:49;8.40;;;1.70;;
51852;SDS011;37894;53.172;6.598;2023-05-17T10:55:22;9.98;;;2.55;;
51852;SDS011;37894;53.172;6.598;2023-05-17T10:58:18;5.93;;;1.60;;
51852;SDS011;37894;53.172;6.598;2023-05-17T11:00:51;7.03;;;1.70;;
51852;SDS011;37894;53.172;6.598;2023-05-17T11:03:28;10.15;;;2.00;;
51852;SDS011;37894;53.172;6.598;2023-05-17T11:08:36;7.70;;;1.80;;
51852;SDS011;37894;53.172;6.598;2023-05-17T11:11:10;9.73;;;2.28;;
51852;SDS011;37894;53.172;6.598;2023-05-17T11:16:38;6.20;;;1.67;;
51852;SDS011;37894;53.172;6.598;2023-05-17T11:19:08;5.93;;;1.58;;
51852;SDS011;37894;53.172;6.598;2023-05-17T11:21:44;8.90;;;2.28;;
51852;SDS011;37894;53.172;6.598;2023-05-17T11:24:12;12.35;;;1.95;;
51852;SDS011;37894;53.172;6.598;2023-05-17T11:26:43;7.38;;;1.73;;
51852;SDS011;37894;53.172;6.598;2023-05-17T11:29:09;8.27;;;2.05;;
51852;SDS011;37894;53.172;6.598;2023-05-17T11:31:36;6.10;;;1.92;;
51852;SDS011;37894;53.172;6.598;2023-05-17T11:34:10;8.68;;;1.88;;
51852;SDS011;37894;53.172;6.598;2023-05-17T11:36:52;7.15;;;2.13;;
51852;SDS011;37894;53.172;6.598;2023-05-17T11:39:20;7.72;;;2.05;;
51852;SDS011;37894;53.172;6.598;2023-05-17T11:41:52;8.32;;;2.13;;
51852;SDS011;37894;53.172;6.598;2023-05-17T11:44:28;9.55;;;2.10;;
51852;SDS011;37894;53.172;6.598;2023-05-17T11:47:04;9.60;;;2.10;;
51852;SDS011;37894;53.172;6.598;2023-05-17T11:49:35;3.80;;;1.50;;
51852;SDS011;37894;53.172;6.598;2023-05-17T11:52:03;7.10;;;1.83;;
51852;SDS011;37894;53.172;6.598;2023-05-17T11:54:30;8.52;;;2.13;;
51852;SDS011;37894;53.172;6.598;2023-05-17T11:56:56;9.43;;;1.73;;
51852;SDS011;37894;53.172;6.598;2023-05-17T11:59:23;6.68;;;1.60;;
51852;SDS011;37894;53.172;6.598;2023-05-17T12:01:49;7.82;;;1.58;;
51852;SDS011;37894;53.172;6.598;2023-05-17T12:04:25;8.13;;;1.60;;
51852;SDS011;37894;53.172;6.598;2023-05-17T12:06:52;6.03;;;1.83;;
51852;SDS011;37894;53.172;6.598;2023-05-17T12:09:18;4.95;;;1.42;;
51852;SDS011;37894;53.172;6.598;2023-05-17T12:11:45;7.68;;;1.75;;
51852;SDS011;37894;53.172;6.598;2023-05-17T12:14:15;6.80;;;2.45;;
51852;SDS011;37894;53.172;6.598;2023-05-17T12:16:46;65.75;;;5.97;;
51852;SDS011;37894;53.172;6.598;2023-05-17T12:19:18;5.20;;;1.00;;
51852;SDS011;37894;53.172;6.598;2023-05-17T12:21:45;4.88;;;1.30;;
51852;SDS011;37894;53.172;6.598;2023-05-17T12:24:11;5.43;;;1.45;;
51852;SDS011;37894;53.172;6.598;2023-05-17T12:26:46;4.88;;;1.77;;
51852;SDS011;37894;53.172;6.598;2023-05-17T12:29:12;10.68;;;2.28;;
51852;SDS011;37894;53.172;6.598;2023-05-17T12:31:44;8.57;;;1.60;;
51852;SDS011;37894;53.172;6.598;2023-05-17T12:34:13;5.32;;;1.50;;
51852;SDS011;37894;53.172;6.598;2023-05-17T12:36:41;6.80;;;1.70;;
51852;SDS011;37894;53.172;6.598;2023-05-17T12:39:11;7.03;;;1.58;;
51852;SDS011;37894;53.172;6.598;2023-05-17T12:41:38;5.55;;;1.33;;
51852;SDS011;37894;53.172;6.598;2023-05-17T12:44:07;7.80;;;2.05;;
51852;SDS011;37894;53.172;6.598;2023-05-17T12:46:33;7.00;;;1.45;;
51852;SDS011;37894;53.172;6.598;2023-05-17T12:49:00;9.27;;;1.70;;
51852;SDS011;37894;53.172;6.598;2023-05-17T12:51:38;6.93;;;1.27;;
51852;SDS011;37894;53.172;6.598;2023-05-17T12:54:08;5.45;;;1.58;;
51852;SDS011;37894;53.172;6.598;2023-05-17T12:56:35;6.47;;;1.60;;
51852;SDS011;37894;53.172;6.598;2023-05-17T12:59:10;12.23;;;2.03;;
51852;SDS011;37894;53.172;6.598;2023-05-17T13:01:42;24.17;;;4.07;;
51852;SDS011;37894;53.172;6.598;2023-05-17T13:04:30;5.18;;;1.60;;
51852;SDS011;37894;53.172;6.598;2023-05-17T13:06:58;4.30;;;1.48;;
51852;SDS011;37894;53.172;6.598;2023-05-17T13:09:26;6.30;;;1.33;;
51852;SDS011;37894;53.172;6.598;2023-05-17T13:11:57;5.28;;;1.00;;
51852;SDS011;37894;53.172;6.598;2023-05-17T13:14:34;4.72;;;1.10;;
51852;SDS011;37894;53.172;6.598;2023-05-17T13:17:08;5.80;;;1.10;;
51852;SDS011;37894;53.172;6.598;2023-05-17T13:19:35;5.82;;;2.15;;
51852;SDS011;37894;53.172;6.598;2023-05-17T13:22:02;5.32;;;1.33;;
51852;SDS011;37894;53.172;6.598;2023-05-17T13:24:30;5.97;;;1.90;;
51852;SDS011;37894;53.172;6.598;2023-05-17T13:26:58;4.88;;;1.50;;
51852;SDS011;37894;53.172;6.598;2023-05-17T13:29:24;5.53;;;1.27;;
51852;SDS011;37894;53.172;6.598;2023-05-17T13:31:50;6.93;;;1.30;;
51852;SDS011;37894;53.172;6.598;2023-05-17T13:34:17;4.68;;;1.30;;
51852;SDS011;37894;53.172;6.598;2023-05-17T13:36:45;4.70;;;1.15;;
51852;SDS011;37894;53.172;6.598;2023-05-17T13:39:11;7.07;;;1.33;;
51852;SDS011;37894;53.172;6.598;2023-05-17T13:41:37;4.68;;;1.48;;
51852;SDS011;37894;53.172;6.598;2023-05-17T13:44:03;6.20;;;1.35;;
51852;SDS011;37894;53.172;6.598;2023-05-17T13:46:29;4.10;;;1.13;;
51852;SDS011;37894;53.172;6.598;2023-05-17T13:48:55;5.35;;;1.23;;
51852;SDS011;37894;53.172;6.598;2023-05-17T13:51:21;3.65;;;1.67;;
51852;SDS011;37894;53.172;6.598;2023-05-17T13:53:47;5.00;;;1.33;;
51852;SDS011;37894;53.172;6.598;2023-05-17T13:56:12;3.17;;;1.00;;
51852;SDS011;37894;53.172;6.598;2023-05-17T13:58:38;7.70;;;1.55;;
51852;SDS011;37894;53.172;6.598;2023-05-17T14:01:04;5.53;;;1.70;;
51852;SDS011;37894;53.172;6.598;2023-05-17T14:03:30;4.68;;;1.40;;
51852;SDS011;37894;53.172;6.598;2023-05-17T14:05:56;4.93;;;1.17;;
51852;SDS011;37894;53.172;6.598;2023-05-17T14:08:22;3.63;;;1.20;;
51852;SDS011;37894;53.172;6.598;2023-05-17T14:10:47;7.07;;;1.60;;
51852;SDS011;37894;53.172;6.598;2023-05-17T14:13:13;7.13;;;1.50;;
51852;SDS011;37894;53.172;6.598;2023-05-17T14:15:39;5.05;;;1.35;;
51852;SDS011;37894;53.172;6.598;2023-05-17T14:18:05;4.95;;;1.00;;
51852;SDS011;37894;53.172;6.598;2023-05-17T14:20:31;3.20;;;0.90;;
51852;SDS011;37894;53.172;6.598;2023-05-17T14:22:58;7.80;;;1.70;;
51852;SDS011;37894;53.172;6.598;2023-05-17T14:25:24;7.85;;;1.23;;
51852;SDS011;37894;53.172;6.598;2023-05-17T14:27:50;5.70;;;1.30;;
51852;SDS011;37894;53.172;6.598;2023-05-17T14:30:17;3.92;;;1.10;;
51852;SDS011;37894;53.172;6.598;2023-05-17T14:32:43;5.38;;;1.33;;
51852;SDS011;37894;53.172;6.598;2023-05-17T14:35:09;4.10;;;1.67;;
51852;SDS011;37894;53.172;6.598;2023-05-17T14:37:35;8.60;;;1.40;;
51852;SDS011;37894;53.172;6.598;2023-05-17T14:40:01;3.92;;;1.10;;
51852;SDS011;37894;53.172;6.598;2023-05-17T14:42:27;4.47;;;1.15;;
51852;SDS011;37894;53.172;6.598;2023-05-17T14:44:54;7.45;;;1.27;;
51852;SDS011;37894;53.172;6.598;2023-05-17T14:47:21;3.65;;;1.05;;
51852;SDS011;37894;53.172;6.598;2023-05-17T14:49:47;3.38;;;1.30;;
51852;SDS011;37894;53.172;6.598;2023-05-17T14:52:13;4.57;;;1.30;;
51852;SDS011;37894;53.172;6.598;2023-05-17T14:54:41;4.35;;;1.42;;
51852;SDS011;37894;53.172;6.598;2023-05-17T14:57:07;4.68;;;1.38;;
51852;SDS011;37894;53.172;6.598;2023-05-17T14:59:34;4.75;;;1.40;;
51852;SDS011;37894;53.172;6.598;2023-05-17T15:02:00;5.03;;;1.30;;
51852;SDS011;37894;53.172;6.598;2023-05-17T15:04:26;4.45;;;1.17;;
51852;SDS011;37894;53.172;6.598;2023-05-17T15:06:51;4.18;;;1.17;;